sensor_id;sensor_type;location;lat;lon;timestamp;temperature;humidity
22676;DHT22;12521;43.310;21.876;2023-12-20T00:01:57;1.3;96.0
22676;DHT22;12521;43.310;21.876;2023-12-20T00:06:33;1.3;96.0
22676;DHT22;12521;43.310;21.876;2023-12-20T00:11:10;1.3;96.0
22676;DHT22;12521;43.310;21.876;2023-12-20T00:15:46;1.3;96.0
22676;DHT22;12521;43.310;21.876;2023-12-20T00:20:22;1.3;96.0
22676;DHT22;12521;43.310;21.876;2023-12-20T00:24:59;1.3;96.0
22676;DHT22;12521;43.310;21.876;2023-12-20T00:29:35;1.3;96.0
22676;DHT22;12521;43.310;21.876;2023-12-20T00:34:12;1.3;96.0
22676;DHT22;12521;43.310;21.876;2023-12-20T00:38:48;1.3;96.0
22676;DHT22;12521;43.310;21.876;2023-12-20T00:43:24;1.3;96.0
22676;DHT22;12521;43.310;21.876;2023-12-20T00:48:00;1.3;96.0
22676;DHT22;12521;43.310;21.876;2023-12-20T00:52:37;1.2;96.0
22676;DHT22;12521;43.310;21.876;2023-12-20T00:57:13;1.2;96.0
22676;DHT22;12521;43.310;21.876;2023-12-20T01:01:50;1.1;96.0
22676;DHT22;12521;43.310;21.876;2023-12-20T01:06:26;1.1;96.0
22676;DHT22;12521;43.310;21.876;2023-12-20T01:11:03;1.1;96.0
22676;DHT22;12521;43.310;21.876;2023-12-20T01:15:41;1.1;96.0
22676;DHT22;12521;43.310;21.876;2023-12-20T01:20:17;1.1;96.0
22676;DHT22;12521;43.310;21.876;2023-12-20T01:24:54;1.1;96.0
22676;DHT22;12521;43.310;21.876;2023-12-20T01:29:30;1.0;96.0
22676;DHT22;12521;43.310;21.876;2023-12-20T01:34:06;1.0;96.0
22676;DHT22;12521;43.310;21.876;2023-12-20T01:38:43;1.0;96.0
22676;DHT22;12521;43.310;21.876;2023-12-20T01:43:19;1.0;96.0
22676;DHT22;12521;43.310;21.876;2023-12-20T01:47:57;1.0;96.0
22676;DHT22;12521;43.310;21.876;2023-12-20T01:52:37;0.8;96.0
22676;DHT22;12521;43.310;21.876;2023-12-20T01:57:14;0.8;96.0
22676;DHT22;12521;43.310;21.876;2023-12-20T02:01:51;0.7;96.0
22676;DHT22;12521;43.310;21.876;2023-12-20T02:06:29;0.7;96.0
22676;DHT22;12521;43.310;21.876;2023-12-20T02:11:10;0.7;96.0
22676;DHT22;12521;43.310;21.876;2023-12-20T02:15:46;0.7;96.0
22676;DHT22;12521;43.310;21.876;2023-12-20T02:20:22;0.7;96.0
22676;DHT22;12521;43.310;21.876;2023-12-20T02:24:58;0.7;96.0
22676;DHT22;12521;43.310;21.876;2023-12-20T02:29:35;0.7;96.0
22676;DHT22;12521;43.310;21.876;2023-12-20T02:34:12;0.7;96.0
22676;DHT22;12521;43.310;21.876;2023-12-20T02:38:48;0.7;96.0
22676;DHT22;12521;43.310;21.876;2023-12-20T02:43:25;0.7;96.0
22676;DHT22;12521;43.310;21.876;2023-12-20T02:48:01;0.7;96.0
22676;DHT22;12521;43.310;21.876;2023-12-20T02:52:40;0.6;96.0
22676;DHT22;12521;43.310;21.876;2023-12-20T02:57:20;0.6;96.0
22676;DHT22;12521;43.310;21.876;2023-12-20T03:01:57;0.6;96.0
22676;DHT22;12521;43.310;21.876;2023-12-20T03:06:33;0.6;96.0
22676;DHT22;12521;43.310;21.876;2023-12-20T03:11:09;0.6;96.0
22676;DHT22;12521;43.310;21.876;2023-12-20T03:15:47;0.6;96.0
22676;DHT22;12521;43.310;21.876;2023-12-20T03:20:23;0.6;96.0
22676;DHT22;12521;43.310;21.876;2023-12-20T03:24:59;0.6;96.0
22676;DHT22;12521;43.310;21.876;2023-12-20T03:29:36;0.6;96.0
22676;DHT22;12521;43.310;21.876;2023-12-20T03:34:12;0.6;96.0
22676;DHT22;12521;43.310;21.876;2023-12-20T03:38:48;0.6;96.0
22676;DHT22;12521;43.310;21.876;2023-12-20T03:43:24;0.7;96.0
22676;DHT22;12521;43.310;21.876;2023-12-20T03:48:01;0.7;96.0
22676;DHT22;12521;43.310;21.876;2023-12-20T03:52:37;0.7;96.0
22676;DHT22;12521;43.310;21.876;2023-12-20T03:57:13;0.7;96.0
22676;DHT22;12521;43.310;21.876;2023-12-20T04:01:50;0.7;96.0
22676;DHT22;12521;43.310;21.876;2023-12-20T04:06:26;0.7;96.0
22676;DHT22;12521;43.310;21.876;2023-12-20T04:11:07;0.7;96.0
22676;DHT22;12521;43.310;21.876;2023-12-20T04:15:43;0.7;96.0
22676;DHT22;12521;43.310;21.876;2023-12-20T04:20:19;0.7;96.0
22676;DHT22;12521;43.310;21.876;2023-12-20T04:24:56;0.7;96.0
22676;DHT22;12521;43.310;21.876;2023-12-20T04:29:32;0.7;96.0
22676;DHT22;12521;43.310;21.876;2023-12-20T04:34:08;0.6;96.0
22676;DHT22;12521;43.310;21.876;2023-12-20T04:38:45;0.6;96.0
22676;DHT22;12521;43.310;21.876;2023-12-20T04:43:21;0.6;96.0
22676;DHT22;12521;43.310;21.876;2023-12-20T04:47:57;0.6;96.0
22676;DHT22;12521;43.310;21.876;2023-12-20T04:52:34;0.6;96.0
22676;DHT22;12521;43.310;21.876;2023-12-20T04:57:10;0.6;96.0
22676;DHT22;12521;43.310;21.876;2023-12-20T05:01:47;0.6;96.0
22676;DHT22;12521;43.310;21.876;2023-12-20T05:06:23;0.6;96.0
22676;DHT22;12521;43.310;21.876;2023-12-20T05:11:00;0.7;96.0
22676;DHT22;12521;43.310;21.876;2023-12-20T05:15:37;0.7;96.0
22676;DHT22;12521;43.310;21.876;2023-12-20T05:20:13;0.8;96.0
22676;DHT22;12521;43.310;21.876;2023-12-20T05:24:50;0.8;96.0
22676;DHT22;12521;43.310;21.876;2023-12-20T05:29:26;0.8;96.0
22676;DHT22;12521;43.310;21.876;2023-12-20T05:34:02;0.8;96.0
22676;DHT22;12521;43.310;21.876;2023-12-20T05:38:39;0.8;96.0
22676;DHT22;12521;43.310;21.876;2023-12-20T05:43:15;0.9;96.0
22676;DHT22;12521;43.310;21.876;2023-12-20T05:47:52;0.9;96.0
22676;DHT22;12521;43.310;21.876;2023-12-20T05:52:28;1.0;96.0
22676;DHT22;12521;43.310;21.876;2023-12-20T05:57:04;1.0;96.0
22676;DHT22;12521;43.310;21.876;2023-12-20T06:01:40;1.0;96.0
22676;DHT22;12521;43.310;21.876;2023-12-20T06:06:16;1.0;96.0
22676;DHT22;12521;43.310;21.876;2023-12-20T06:10:52;1.0;96.0
22676;DHT22;12521;43.310;21.876;2023-12-20T06:15:29;1.0;96.0
22676;DHT22;12521;43.310;21.876;2023-12-20T06:20:07;1.0;96.0
22676;DHT22;12521;43.310;21.876;2023-12-20T06:24:46;1.0;96.0
22676;DHT22;12521;43.310;21.876;2023-12-20T06:29:22;1.0;96.0
22676;DHT22;12521;43.310;21.876;2023-12-20T06:33:58;0.8;96.0
22676;DHT22;12521;43.310;21.876;2023-12-20T06:38:36;0.8;96.0
22676;DHT22;12521;43.310;21.876;2023-12-20T06:43:12;0.6;96.0
22676;DHT22;12521;43.310;21.876;2023-12-20T06:47:49;0.6;96.0
22676;DHT22;12521;43.310;21.876;2023-12-20T06:52:26;0.6;96.0
22676;DHT22;12521;43.310;21.876;2023-12-20T06:57:03;0.6;96.0
22676;DHT22;12521;43.310;21.876;2023-12-20T07:01:39;0.5;96.0
22676;DHT22;12521;43.310;21.876;2023-12-20T07:06:16;0.5;96.0
22676;DHT22;12521;43.310;21.876;2023-12-20T07:10:52;0.6;96.0
22676;DHT22;12521;43.310;21.876;2023-12-20T07:15:28;0.6;96.0
22676;DHT22;12521;43.310;21.876;2023-12-20T07:20:06;0.7;96.0
22676;DHT22;12521;43.310;21.876;2023-12-20T07:24:45;0.7;96.0
22676;DHT22;12521;43.310;21.876;2023-12-20T07:29:22;0.7;96.0
22676;DHT22;12521;43.310;21.876;2023-12-20T07:33:58;1.0;96.0
22676;DHT22;12521;43.310;21.876;2023-12-20T07:38:34;1.0;96.0
22676;DHT22;12521;43.310;21.876;2023-12-20T07:43:10;1.2;96.0
22676;DHT22;12521;43.310;21.876;2023-12-20T07:47:47;1.2;96.0
22676;DHT22;12521;43.310;21.876;2023-12-20T07:52:23;1.5;96.0
22676;DHT22;12521;43.310;21.876;2023-12-20T07:56:59;1.5;96.0
22676;DHT22;12521;43.310;21.876;2023-12-20T08:01:35;1.8;96.0
22676;DHT22;12521;43.310;21.876;2023-12-20T08:06:12;1.8;96.0
22676;DHT22;12521;43.310;21.876;2023-12-20T08:10:48;2.0;96.0
22676;DHT22;12521;43.310;21.876;2023-12-20T08:15:24;2.0;96.0
22676;DHT22;12521;43.310;21.876;2023-12-20T08:20:03;2.1;96.0
22676;DHT22;12521;43.310;21.876;2023-12-20T08:24:43;2.1;96.0
22676;DHT22;12521;43.310;21.876;2023-12-20T08:29:19;2.1;96.0
22676;DHT22;12521;43.310;21.876;2023-12-20T08:33:56;2.4;96.0
22676;DHT22;12521;43.310;21.876;2023-12-20T08:38:32;2.4;96.0
22676;DHT22;12521;43.310;21.876;2023-12-20T08:43:09;2.7;96.0
22676;DHT22;12521;43.310;21.876;2023-12-20T08:47:46;2.7;96.0
22676;DHT22;12521;43.310;21.876;2023-12-20T08:52:22;2.8;96.0
22676;DHT22;12521;43.310;21.876;2023-12-20T08:56:59;2.8;96.0
22676;DHT22;12521;43.310;21.876;2023-12-20T09:01:35;2.9;96.0
22676;DHT22;12521;43.310;21.876;2023-12-20T09:06:11;2.9;96.0
22676;DHT22;12521;43.310;21.876;2023-12-20T09:10:47;3.0;96.0
22676;DHT22;12521;43.310;21.876;2023-12-20T09:15:25;3.0;96.0
22676;DHT22;12521;43.310;21.876;2023-12-20T09:20:03;3.1;96.0
22676;DHT22;12521;43.310;21.876;2023-12-20T09:24:43;3.1;96.0
22676;DHT22;12521;43.310;21.876;2023-12-20T09:29:19;3.1;96.0
22676;DHT22;12521;43.310;21.876;2023-12-20T09:33:55;3.1;96.0
22676;DHT22;12521;43.310;21.876;2023-12-20T09:38:31;3.1;96.0
22676;DHT22;12521;43.310;21.876;2023-12-20T09:43:10;3.1;96.0
22676;DHT22;12521;43.310;21.876;2023-12-20T09:47:57;3.1;96.0
22676;DHT22;12521;43.310;21.876;2023-12-20T09:52:36;3.2;96.0
22676;DHT22;12521;43.310;21.876;2023-12-20T09:57:18;3.2;96.0
22676;DHT22;12521;43.310;21.876;2023-12-20T10:01:55;3.3;96.0
22676;DHT22;12521;43.310;21.876;2023-12-20T10:06:36;3.3;96.0
22676;DHT22;12521;43.310;21.876;2023-12-20T10:11:14;3.6;96.0
22676;DHT22;12521;43.310;21.876;2023-12-20T10:15:51;3.6;96.0
22676;DHT22;12521;43.310;21.876;2023-12-20T10:20:28;3.9;96.0
22676;DHT22;12521;43.310;21.876;2023-12-20T10:25:07;3.9;96.0
22676;DHT22;12521;43.310;21.876;2023-12-20T10:29:44;3.9;96.0
22676;DHT22;12521;43.310;21.876;2023-12-20T10:34:20;4.3;96.0
22676;DHT22;12521;43.310;21.876;2023-12-20T10:38:58;4.3;96.0
22676;DHT22;12521;43.310;21.876;2023-12-20T10:43:37;4.7;96.0
22676;DHT22;12521;43.310;21.876;2023-12-20T10:48:18;4.7;96.0
22676;DHT22;12521;43.310;21.876;2023-12-20T10:52:58;4.8;96.0
22676;DHT22;12521;43.310;21.876;2023-12-20T10:57:36;4.8;96.0
22676;DHT22;12521;43.310;21.876;2023-12-20T11:02:13;5.0;96.0
22676;DHT22;12521;43.310;21.876;2023-12-20T11:06:54;5.0;96.0
22676;DHT22;12521;43.310;21.876;2023-12-20T11:12:09;5.0;96.0
22676;DHT22;12521;43.310;21.876;2023-12-20T11:17:16;5.0;96.0
22676;DHT22;12521;43.310;21.876;2023-12-20T11:21:53;5.1;96.0
22676;DHT22;12521;43.310;21.876;2023-12-20T11:26:29;5.1;96.0
22676;DHT22;12521;43.310;21.876;2023-12-20T11:31:05;5.2;96.0
22676;DHT22;12521;43.310;21.876;2023-12-20T11:35:42;5.2;96.0
22676;DHT22;12521;43.310;21.876;2023-12-20T11:40:23;5.4;96.0
22676;DHT22;12521;43.310;21.876;2023-12-20T11:44:59;5.4;96.0
22676;DHT22;12521;43.310;21.876;2023-12-20T11:49:39;5.4;96.0
22676;DHT22;12521;43.310;21.876;2023-12-20T11:54:16;5.6;96.0
22676;DHT22;12521;43.310;21.876;2023-12-20T11:58:52;5.6;96.0
22676;DHT22;12521;43.310;21.876;2023-12-20T12:03:31;5.9;96.0
22676;DHT22;12521;43.310;21.876;2023-12-20T12:08:07;5.9;96.0
22676;DHT22;12521;43.310;21.876;2023-12-20T12:12:44;6.1;96.0
22676;DHT22;12521;43.310;21.876;2023-12-20T12:17:20;6.1;96.0
22676;DHT22;12521;43.310;21.876;2023-12-20T12:22:07;6.3;96.0
22676;DHT22;12521;43.310;21.876;2023-12-20T12:26:50;6.3;96.0
22676;DHT22;12521;43.310;21.876;2023-12-20T12:31:27;6.4;96.0
22676;DHT22;12521;43.310;21.876;2023-12-20T12:36:04;6.4;96.0
22676;DHT22;12521;43.310;21.876;2023-12-20T12:40:43;6.4;96.0
22676;DHT22;12521;43.310;21.876;2023-12-20T12:45:19;6.4;96.0
22676;DHT22;12521;43.310;21.876;2023-12-20T12:49:56;6.4;96.0
22676;DHT22;12521;43.310;21.876;2023-12-20T12:54:32;6.6;96.0
22676;DHT22;12521;43.310;21.876;2023-12-20T12:59:08;6.6;96.0
22676;DHT22;12521;43.310;21.876;2023-12-20T13:03:45;6.8;96.0
22676;DHT22;12521;43.310;21.876;2023-12-20T13:08:21;6.8;96.0
22676;DHT22;12521;43.310;21.876;2023-12-20T13:12:58;7.1;96.0
22676;DHT22;12521;43.310;21.876;2023-12-20T13:17:35;7.1;96.0
22676;DHT22;12521;43.310;21.876;2023-12-20T13:22:11;7.4;96.0
22676;DHT22;12521;43.310;21.876;2023-12-20T13:26:47;7.4;96.0
22676;DHT22;12521;43.310;21.876;2023-12-20T13:31:24;7.5;96.0
22676;DHT22;12521;43.310;21.876;2023-12-20T13:36:00;7.5;96.0
22676;DHT22;12521;43.310;21.876;2023-12-20T13:40:37;7.6;96.0
22676;DHT22;12521;43.310;21.876;2023-12-20T13:45:14;7.6;96.0
22676;DHT22;12521;43.310;21.876;2023-12-20T13:49:51;7.6;96.0
22676;DHT22;12521;43.310;21.876;2023-12-20T13:54:28;7.6;96.0
22676;DHT22;12521;43.310;21.876;2023-12-20T13:59:04;7.6;96.0
22676;DHT22;12521;43.310;21.876;2023-12-20T14:03:41;7.5;96.0
22676;DHT22;12521;43.310;21.876;2023-12-20T14:08:17;7.5;96.0
22676;DHT22;12521;43.310;21.876;2023-12-20T14:12:53;7.4;96.0
22676;DHT22;12521;43.310;21.876;2023-12-20T14:17:30;7.4;96.0
22676;DHT22;12521;43.310;21.876;2023-12-20T14:22:06;7.3;96.0
22676;DHT22;12521;43.310;21.876;2023-12-20T14:26:43;7.3;96.0
22676;DHT22;12521;43.310;21.876;2023-12-20T14:31:19;7.2;96.0
22676;DHT22;12521;43.310;21.876;2023-12-20T14:35:55;7.2;96.0
22676;DHT22;12521;43.310;21.876;2023-12-20T14:40:31;7.1;96.0
22676;DHT22;12521;43.310;21.876;2023-12-20T14:45:09;7.1;96.0
22676;DHT22;12521;43.310;21.876;2023-12-20T14:49:47;7.1;96.0
22676;DHT22;12521;43.310;21.876;2023-12-20T14:54:24;7.0;96.0
22676;DHT22;12521;43.310;21.876;2023-12-20T14:59:00;7.0;96.0
22676;DHT22;12521;43.310;21.876;2023-12-20T15:03:37;6.9;96.0
22676;DHT22;12521;43.310;21.876;2023-12-20T15:08:14;6.9;96.0
22676;DHT22;12521;43.310;21.876;2023-12-20T15:12:50;6.6;96.0
22676;DHT22;12521;43.310;21.876;2023-12-20T15:17:27;6.6;96.0
22676;DHT22;12521;43.310;21.876;2023-12-20T15:22:03;6.4;96.0
22676;DHT22;12521;43.310;21.876;2023-12-20T15:26:40;6.4;96.0
22676;DHT22;12521;43.310;21.876;2023-12-20T15:31:18;6.1;96.0
22676;DHT22;12521;43.310;21.876;2023-12-20T15:35:54;6.1;96.0
22676;DHT22;12521;43.310;21.876;2023-12-20T15:40:30;5.8;96.0
22676;DHT22;12521;43.310;21.876;2023-12-20T15:45:07;5.8;96.0
22676;DHT22;12521;43.310;21.876;2023-12-20T15:49:45;5.8;96.0
22676;DHT22;12521;43.310;21.876;2023-12-20T15:54:22;5.6;96.0
22676;DHT22;12521;43.310;21.876;2023-12-20T15:58:58;5.6;96.0
22676;DHT22;12521;43.310;21.876;2023-12-20T16:03:34;5.3;96.0
22676;DHT22;12521;43.310;21.876;2023-12-20T16:08:11;5.3;96.0
22676;DHT22;12521;43.310;21.876;2023-12-20T16:12:48;5.0;96.0
22676;DHT22;12521;43.310;21.876;2023-12-20T16:17:24;5.0;96.0
22676;DHT22;12521;43.310;21.876;2023-12-20T16:22:00;4.8;96.0
22676;DHT22;12521;43.310;21.876;2023-12-20T16:26:37;4.8;96.0
22676;DHT22;12521;43.310;21.876;2023-12-20T16:31:13;4.7;96.0
22676;DHT22;12521;43.310;21.876;2023-12-20T16:35:50;4.7;96.0
22676;DHT22;12521;43.310;21.876;2023-12-20T16:40:26;4.6;96.0
22676;DHT22;12521;43.310;21.876;2023-12-20T16:45:03;4.6;96.0
22676;DHT22;12521;43.310;21.876;2023-12-20T16:49:43;4.6;96.0
22676;DHT22;12521;43.310;21.876;2023-12-20T16:54:20;4.5;96.0
22676;DHT22;12521;43.310;21.876;2023-12-20T16:58:56;4.5;96.0
22676;DHT22;12521;43.310;21.876;2023-12-20T17:03:32;4.4;96.0
22676;DHT22;12521;43.310;21.876;2023-12-20T17:08:08;4.4;96.0
22676;DHT22;12521;43.310;21.876;2023-12-20T17:12:45;4.3;96.0
22676;DHT22;12521;43.310;21.876;2023-12-20T17:17:21;4.3;96.0
22676;DHT22;12521;43.310;21.876;2023-12-20T17:21:57;4.2;96.0
22676;DHT22;12521;43.310;21.876;2023-12-20T17:26:34;4.2;96.0
22676;DHT22;12521;43.310;21.876;2023-12-20T17:31:10;4.2;96.0
22676;DHT22;12521;43.310;21.876;2023-12-20T17:35:47;4.2;96.0
22676;DHT22;12521;43.310;21.876;2023-12-20T17:40:23;4.2;96.0
22676;DHT22;12521;43.310;21.876;2023-12-20T17:44:59;4.2;96.0
22676;DHT22;12521;43.310;21.876;2023-12-20T17:49:36;4.2;96.0
22676;DHT22;12521;43.310;21.876;2023-12-20T17:54:12;4.2;96.0
22676;DHT22;12521;43.310;21.876;2023-12-20T17:58:49;4.2;96.0
22676;DHT22;12521;43.310;21.876;2023-12-20T18:03:25;4.1;96.0
22676;DHT22;12521;43.310;21.876;2023-12-20T18:08:02;4.1;96.0
22676;DHT22;12521;43.310;21.876;2023-12-20T18:12:41;4.0;96.0
22676;DHT22;12521;43.310;21.876;2023-12-20T18:17:17;4.0;96.0
22676;DHT22;12521;43.310;21.876;2023-12-20T18:21:54;4.0;96.0
22676;DHT22;12521;43.310;21.876;2023-12-20T18:26:30;4.0;96.0
22676;DHT22;12521;43.310;21.876;2023-12-20T18:31:07;4.0;96.0
22676;DHT22;12521;43.310;21.876;2023-12-20T18:35:43;4.0;96.0
22676;DHT22;12521;43.310;21.876;2023-12-20T18:40:20;4.0;96.0
22676;DHT22;12521;43.310;21.876;2023-12-20T18:44:57;4.0;96.0
22676;DHT22;12521;43.310;21.876;2023-12-20T18:49:33;4.0;96.0
22676;DHT22;12521;43.310;21.876;2023-12-20T18:54:10;4.1;96.0
22676;DHT22;12521;43.310;21.876;2023-12-20T18:58:47;4.1;96.0
22676;DHT22;12521;43.310;21.876;2023-12-20T19:03:23;4.2;96.0
22676;DHT22;12521;43.310;21.876;2023-12-20T19:07:59;4.2;96.0
22676;DHT22;12521;43.310;21.876;2023-12-20T19:12:36;4.4;96.0
22676;DHT22;12521;43.310;21.876;2023-12-20T19:17:12;4.4;96.0
22676;DHT22;12521;43.310;21.876;2023-12-20T19:21:49;4.5;96.0
22676;DHT22;12521;43.310;21.876;2023-12-20T19:26:25;4.5;96.0
22676;DHT22;12521;43.310;21.876;2023-12-20T19:31:01;4.6;96.0
22676;DHT22;12521;43.310;21.876;2023-12-20T19:35:39;4.6;96.0
22676;DHT22;12521;43.310;21.876;2023-12-20T19:40:15;4.6;96.0
22676;DHT22;12521;43.310;21.876;2023-12-20T19:44:52;4.7;96.0
22676;DHT22;12521;43.310;21.876;2023-12-20T19:49:28;4.7;96.0
22676;DHT22;12521;43.310;21.876;2023-12-20T19:54:04;5.1;96.0
22676;DHT22;12521;43.310;21.876;2023-12-20T19:58:41;5.1;96.0
22676;DHT22;12521;43.310;21.876;2023-12-20T20:03:17;5.4;96.0
22676;DHT22;12521;43.310;21.876;2023-12-20T20:07:53;5.4;96.0
22676;DHT22;12521;43.310;21.876;2023-12-20T20:12:30;5.5;96.0
22676;DHT22;12521;43.310;21.876;2023-12-20T20:17:06;5.5;96.0
22676;DHT22;12521;43.310;21.876;2023-12-20T20:21:43;5.6;96.0
22676;DHT22;12521;43.310;21.876;2023-12-20T20:26:19;5.6;96.0
22676;DHT22;12521;43.310;21.876;2023-12-20T20:30:56;5.4;96.0
22676;DHT22;12521;43.310;21.876;2023-12-20T20:35:33;5.4;96.0
22676;DHT22;12521;43.310;21.876;2023-12-20T20:40:10;5.4;96.0
22676;DHT22;12521;43.310;21.876;2023-12-20T20:44:46;5.2;96.0
22676;DHT22;12521;43.310;21.876;2023-12-20T20:49:22;5.2;96.0
22676;DHT22;12521;43.310;21.876;2023-12-20T20:53:58;5.2;96.0
22676;DHT22;12521;43.310;21.876;2023-12-20T20:58:36;5.2;96.0
22676;DHT22;12521;43.310;21.876;2023-12-20T21:03:13;5.2;96.0
22676;DHT22;12521;43.310;21.876;2023-12-20T21:07:49;5.2;96.0
22676;DHT22;12521;43.310;21.876;2023-12-20T21:12:25;5.2;96.0
22676;DHT22;12521;43.310;21.876;2023-12-20T21:17:02;5.2;96.0
22676;DHT22;12521;43.310;21.876;2023-12-20T21:21:39;5.1;96.0
22676;DHT22;12521;43.310;21.876;2023-12-20T21:26:16;5.1;96.0
22676;DHT22;12521;43.310;21.876;2023-12-20T21:30:52;5.0;96.0
22676;DHT22;12521;43.310;21.876;2023-12-20T21:35:28;5.0;96.0
22676;DHT22;12521;43.310;21.876;2023-12-20T21:40:06;5.0;96.0
22676;DHT22;12521;43.310;21.876;2023-12-20T21:44:46;4.9;96.0
22676;DHT22;12521;43.310;21.876;2023-12-20T21:49:22;4.9;96.0
22676;DHT22;12521;43.310;21.876;2023-12-20T21:53:59;4.8;96.0
22676;DHT22;12521;43.310;21.876;2023-12-20T21:58:36;4.8;96.0
22676;DHT22;12521;43.310;21.876;2023-12-20T22:03:13;4.7;96.0
22676;DHT22;12521;43.310;21.876;2023-12-20T22:07:49;4.7;96.0
22676;DHT22;12521;43.310;21.876;2023-12-20T22:12:25;4.6;96.0
22676;DHT22;12521;43.310;21.876;2023-12-20T22:17:03;4.6;96.0
22676;DHT22;12521;43.310;21.876;2023-12-20T22:21:39;4.5;96.0
22676;DHT22;12521;43.310;21.876;2023-12-20T22:26:15;4.5;96.0
22676;DHT22;12521;43.310;21.876;2023-12-20T22:30:52;4.6;96.0
22676;DHT22;12521;43.310;21.876;2023-12-20T22:35:28;4.6;96.0
22676;DHT22;12521;43.310;21.876;2023-12-20T22:40:05;4.6;96.0
22676;DHT22;12521;43.310;21.876;2023-12-20T22:44:46;4.6;96.0
22676;DHT22;12521;43.310;21.876;2023-12-20T22:49:23;4.6;96.0
22676;DHT22;12521;43.310;21.876;2023-12-20T22:53:59;4.6;96.0
22676;DHT22;12521;43.310;21.876;2023-12-20T22:58:37;4.6;96.0
22676;DHT22;12521;43.310;21.876;2023-12-20T23:03:14;4.6;96.0
22676;DHT22;12521;43.310;21.876;2023-12-20T23:07:50;4.6;96.0
22676;DHT22;12521;43.310;21.876;2023-12-20T23:12:27;4.5;96.0
22676;DHT22;12521;43.310;21.876;2023-12-20T23:17:03;4.5;96.0
22676;DHT22;12521;43.310;21.876;2023-12-20T23:21:39;4.4;96.0
22676;DHT22;12521;43.310;21.876;2023-12-20T23:26:15;4.4;96.0
22676;DHT22;12521;43.310;21.876;2023-12-20T23:30:51;4.4;96.0
22676;DHT22;12521;43.310;21.876;2023-12-20T23:35:27;4.4;96.0
22676;DHT22;12521;43.310;21.876;2023-12-20T23:40:05;4.4;96.0
22676;DHT22;12521;43.310;21.876;2023-12-20T23:44:43;4.3;96.0
22676;DHT22;12521;43.310;21.876;2023-12-20T23:49:20;4.3;96.0
22676;DHT22;12521;43.310;21.876;2023-12-20T23:53:56;4.3;96.0
22676;DHT22;12521;43.310;21.876;2023-12-20T23:58:32;4.3;96.0
